createdAt,value
2017-05-03T00:01:27.867Z,4.93
2017-05-03T00:03:54.819Z,4.48
2017-05-03T00:06:21.796Z,4.47
2017-05-03T00:08:48.742Z,4.07
2017-05-03T00:11:15.717Z,4.48
2017-05-03T00:13:43.034Z,4.70
2017-05-03T00:16:10.763Z,4.72
2017-05-03T00:18:37.714Z,4.45
2017-05-03T00:21:04.700Z,4.55
2017-05-03T00:23:31.642Z,4.55
2017-05-03T00:25:58.601Z,5.10
2017-05-03T00:28:25.621Z,4.88
2017-05-03T00:30:52.710Z,4.78
2017-05-03T00:33:19.670Z,4.40
2017-05-03T00:35:46.638Z,4.60
2017-05-03T00:38:13.579Z,4.80
2017-05-03T00:40:40.559Z,5.20
2017-05-03T00:43:11.757Z,4.80
2017-05-03T00:45:38.727Z,5.40
2017-05-03T00:48:06.417Z,5.32
2017-05-03T00:50:33.380Z,5.20
2017-05-03T00:53:00.355Z,5.32
2017-05-03T00:55:27.422Z,5.17
2017-05-03T00:57:55.134Z,4.70
2017-05-03T01:00:22.134Z,5.24
2017-05-03T01:02:49.846Z,5.05
2017-05-03T01:05:18.507Z,5.37
2017-05-03T01:07:45.476Z,5.25
2017-05-03T01:10:12.898Z,4.98
2017-05-03T01:12:39.902Z,5.33
2017-05-03T01:15:06.893Z,5.43
2017-05-03T01:17:33.904Z,5.07
2017-05-03T01:20:00.906Z,5.30
2017-05-03T01:22:27.842Z,5.42
2017-05-03T01:24:54.828Z,5.65
2017-05-03T01:27:21.795Z,5.80
2017-05-03T01:29:49.477Z,6.07
2017-05-03T01:32:16.472Z,5.78
2017-05-03T01:34:43.453Z,6.33
2017-05-03T01:37:11.170Z,6.30
2017-05-03T01:39:38.453Z,6.22
2017-05-03T01:42:05.476Z,6.65
2017-05-03T01:44:32.485Z,6.27
2017-05-03T01:46:59.506Z,6.00
2017-05-03T01:49:27.345Z,5.38
2017-05-03T01:51:54.334Z,5.60
2017-05-03T01:54:22.135Z,5.40
2017-05-03T01:56:49.151Z,5.35
2017-05-03T01:59:16.217Z,5.42
2017-05-03T02:01:43.234Z,5.28
2017-05-03T02:04:10.266Z,5.12
2017-05-03T02:06:37.958Z,5.30
2017-05-03T02:09:04.947Z,4.80
2017-05-03T02:11:31.930Z,4.50
2017-05-03T02:13:58.999Z,4.47
2017-05-03T02:16:26.092Z,5.32
2017-05-03T02:18:53.054Z,4.65
2017-05-03T02:21:20.746Z,5.18
2017-05-03T02:23:47.731Z,5.63
2017-05-03T02:26:14.686Z,4.95
2017-05-03T02:28:41.652Z,5.23
2017-05-03T02:31:09.326Z,4.48
2017-05-03T02:33:36.300Z,5.30
2017-05-03T02:36:03.291Z,4.80
2017-05-03T02:38:30.224Z,4.97
2017-05-03T02:40:57.265Z,4.80
2017-05-03T02:43:24.208Z,4.70
2017-05-03T02:45:51.171Z,4.88
2017-05-03T02:48:18.938Z,4.35
2017-05-03T02:50:46.683Z,5.03
2017-05-03T02:53:13.725Z,5.67
2017-05-03T02:55:40.701Z,5.30
2017-05-03T02:58:08.423Z,4.88
2017-05-03T03:00:35.425Z,4.93
2017-05-03T03:03:02.406Z,4.40
2017-05-03T03:05:29.406Z,4.52
2017-05-03T03:07:56.422Z,4.20
2017-05-03T03:10:23.500Z,4.58
2017-05-03T03:12:50.572Z,5.57
2017-05-03T03:15:17.914Z,4.00
2017-05-03T03:17:44.904Z,5.35
2017-05-03T03:20:11.857Z,4.72
2017-05-03T03:22:38.821Z,6.13
2017-05-03T03:25:06.642Z,3.93
2017-05-03T03:27:33.626Z,3.87
2017-05-03T03:30:01.341Z,3.72
2017-05-03T03:32:28.347Z,4.22
2017-05-03T03:34:55.311Z,45.62
2017-05-03T03:37:22.282Z,8.07
2017-05-03T03:39:49.207Z,8.12
2017-05-03T03:42:16.189Z,5.40
2017-05-03T03:44:43.192Z,5.98
2017-05-03T03:47:10.145Z,5.42
2017-05-03T03:49:37.106Z,5.18
2017-05-03T03:52:04.898Z,5.38
2017-05-03T03:54:32.032Z,5.30
2017-05-03T03:56:59.037Z,5.40
2017-05-03T03:59:26.077Z,10.45
2017-05-03T04:01:53.075Z,6.43
2017-05-03T04:04:20.032Z,6.43
2017-05-03T04:06:47.048Z,6.50
2017-05-03T04:09:14.051Z,6.53
2017-05-03T04:11:41.080Z,5.55
2017-05-03T04:14:08.881Z,5.52
2017-05-03T04:16:35.878Z,6.40
2017-05-03T04:19:03.927Z,7.67
2017-05-03T04:21:30.903Z,6.08
2017-05-03T04:23:57.909Z,6.87
2017-05-03T04:26:24.903Z,9.98
2017-05-03T04:28:52.609Z,8.78
2017-05-03T04:31:19.562Z,9.10
2017-05-03T04:33:46.551Z,8.43
2017-05-03T04:36:13.546Z,7.55
2017-05-03T04:38:40.498Z,10.48
2017-05-03T04:41:07.438Z,14.25
2017-05-03T04:43:34.447Z,15.63
2017-05-03T04:46:01.419Z,11.98
2017-05-03T04:48:28.376Z,14.50
2017-05-03T04:50:55.387Z,12.12
2017-05-03T04:53:22.326Z,12.22
2017-05-03T04:55:49.298Z,12.42
2017-05-03T04:58:16.292Z,13.30
2017-05-03T05:00:44.140Z,10.53
2017-05-03T05:03:11.413Z,11.03
2017-05-03T05:05:39.143Z,8.40
2017-05-03T05:08:06.096Z,8.15
2017-05-03T05:10:33.045Z,8.40
2017-05-03T05:13:00.014Z,9.62
2017-05-03T05:15:27.761Z,7.12
2017-05-03T05:17:55.495Z,8.07
2017-05-03T05:20:22.494Z,5.37
2017-05-03T05:22:49.508Z,5.28
2017-05-03T05:25:16.515Z,5.18
2017-05-03T05:27:43.606Z,4.75
2017-05-03T05:30:10.602Z,6.93
2017-05-03T05:32:37.597Z,6.87
2017-05-03T05:35:05.343Z,5.38
2017-05-03T05:37:32.326Z,5.30
2017-05-03T05:39:59.369Z,2.87
2017-05-03T05:42:26.436Z,2.90
2017-05-03T05:50:48.047Z,2.53
2017-05-03T05:53:15.170Z,2.18
2017-05-03T05:55:42.376Z,2.08
2017-05-03T05:58:09.698Z,2.18
2017-05-03T06:00:37.561Z,2.60
2017-05-03T06:03:04.802Z,3.05
2017-05-03T06:05:32.149Z,2.45
2017-05-03T06:08:01.240Z,2.52
2017-05-03T06:10:29.629Z,2.35
2017-05-03T06:15:53.107Z,3.00
2017-05-03T06:18:21.616Z,2.40
2017-05-03T06:53:14.815Z,2.65
2017-05-03T06:55:42.297Z,2.98
2017-05-03T07:01:10.999Z,2.24
2017-05-03T07:06:52.756Z,2.26
2017-05-03T07:09:24.618Z,2.10
2017-05-03T07:38:31.526Z,2.18
2017-05-03T07:44:50.119Z,2.10
2017-05-03T08:19:46.601Z,2.18
2017-05-03T08:45:36.182Z,3.62
2017-05-03T09:05:34.059Z,2.00
2017-05-03T09:08:02.457Z,2.70
2017-05-03T09:10:29.508Z,2.40
2017-05-03T09:12:57.249Z,2.20
2017-05-03T09:15:24.276Z,2.27
2017-05-03T09:17:55.760Z,1.90
2017-05-03T09:20:23.868Z,1.86
2017-05-03T09:22:50.870Z,1.80
2017-05-03T09:34:07.217Z,4.20
2017-05-03T09:36:44.911Z,3.85
2017-05-03T09:39:16.471Z,2.70
2017-05-03T09:41:43.776Z,2.07
2017-05-03T09:44:14.316Z,1.90
2017-05-03T09:46:44.841Z,2.50
2017-05-03T09:49:18.778Z,2.63
2017-05-03T09:51:56.295Z,2.30
2017-05-03T09:54:25.601Z,2.10
2017-05-03T09:56:52.762Z,2.35
2017-05-03T09:59:21.255Z,2.38
2017-05-03T10:04:40.836Z,1.90
2017-05-03T10:07:12.713Z,2.30
2017-05-03T10:12:37.550Z,1.85
2017-05-03T10:31:28.973Z,2.30
2017-05-03T10:34:01.710Z,3.23
2017-05-03T10:36:31.963Z,3.33
2017-05-03T10:38:59.717Z,2.70
2017-05-03T10:41:28.072Z,3.25
2017-05-03T10:49:14.679Z,2.32
2017-05-03T10:51:46.221Z,1.83
2017-05-03T10:54:14.725Z,2.37
2017-05-03T10:56:42.365Z,2.88
2017-05-03T10:59:15.785Z,2.65
2017-05-03T11:01:46.108Z,2.72
2017-05-03T11:04:16.966Z,2.77
2017-05-03T11:09:21.555Z,2.92
2017-05-03T11:11:48.747Z,3.28
2017-05-03T11:14:16.859Z,3.13
2017-05-03T11:16:50.898Z,3.72
2017-05-03T11:19:20.222Z,4.17
2017-05-03T11:21:52.437Z,4.40
2017-05-03T11:24:20.212Z,3.50
2017-05-03T11:26:47.546Z,4.50
2017-05-03T11:29:20.183Z,7.92
2017-05-03T11:31:47.391Z,4.04
2017-05-03T11:36:53.623Z,4.70
2017-05-03T11:39:25.238Z,4.60
2017-05-03T11:41:52.678Z,5.03
2017-05-03T11:44:19.807Z,5.10
2017-05-03T11:46:54.032Z,5.50
2017-05-03T11:49:21.338Z,5.10
2017-05-03T11:51:48.524Z,5.22
2017-05-03T11:54:15.615Z,5.57
2017-05-03T11:56:43.210Z,5.43
2017-05-03T11:59:10.947Z,5.28
2017-05-03T12:01:41.095Z,5.02
2017-05-03T12:04:08.182Z,5.00
2017-05-03T12:06:35.200Z,5.15
2017-05-03T12:09:02.390Z,5.23
2017-05-03T12:11:29.559Z,5.30
2017-05-03T12:13:56.645Z,5.80
2017-05-03T12:16:24.705Z,6.26
2017-05-03T12:18:51.818Z,7.07
2017-05-03T12:21:23.469Z,6.68
2017-05-03T12:23:51.252Z,8.23
2017-05-03T12:26:19.252Z,8.93
2017-05-03T12:28:46.302Z,9.90
2017-05-03T12:31:17.319Z,9.63
2017-05-03T12:33:44.523Z,10.10
2017-05-03T12:36:11.667Z,11.32
2017-05-03T12:38:38.649Z,12.30
2017-05-03T12:41:05.690Z,9.50
2017-05-03T12:43:33.413Z,10.40
2017-05-03T12:46:02.820Z,9.15
2017-05-03T12:48:30.849Z,9.28
2017-05-03T12:50:57.946Z,11.05
2017-05-03T12:53:24.983Z,10.10
2017-05-03T12:55:52.365Z,10.40
2017-05-03T12:58:19.605Z,11.32
2017-05-03T13:00:53.572Z,13.82
2017-05-03T13:03:20.929Z,13.70
2017-05-03T13:05:51.020Z,11.63
2017-05-03T13:08:18.152Z,12.37
2017-05-03T13:10:46.281Z,12.95
2017-05-03T13:13:14.230Z,11.77
2017-05-03T13:15:42.216Z,12.27
2017-05-03T13:18:14.373Z,13.53
2017-05-03T13:20:41.583Z,15.36
2017-05-03T13:23:08.754Z,13.60
2017-05-03T13:25:37.189Z,13.47
2017-05-03T13:28:04.396Z,13.83
2017-05-03T13:30:31.503Z,10.83
2017-05-03T13:32:58.556Z,7.52
2017-05-03T13:35:25.585Z,11.63
2017-05-03T13:37:52.673Z,12.00
2017-05-03T13:40:19.699Z,13.13
2017-05-03T13:42:46.719Z,11.40
2017-05-03T13:45:13.791Z,10.85
2017-05-03T13:47:41.660Z,10.73
2017-05-03T13:50:11.002Z,10.90
2017-05-03T13:52:38.340Z,14.03
2017-05-03T13:55:05.417Z,15.83
2017-05-03T13:57:32.388Z,15.97
2017-05-03T13:59:59.667Z,16.56
2017-05-03T14:02:26.676Z,17.15
2017-05-03T14:04:53.645Z,17.92
2017-05-03T14:07:20.728Z,19.12
2017-05-03T14:09:48.050Z,18.57
2017-05-03T14:12:15.248Z,17.05
2017-05-03T14:14:42.635Z,19.87
2017-05-03T14:17:10.106Z,19.77
2017-05-03T14:19:37.218Z,19.47
2017-05-03T14:22:05.775Z,22.07
2017-05-03T14:24:32.821Z,23.77
2017-05-03T14:26:59.789Z,21.70
2017-05-03T14:29:26.828Z,21.15
2017-05-03T14:31:53.859Z,22.75
2017-05-03T14:34:20.944Z,22.17
2017-05-03T14:36:47.963Z,21.20
2017-05-03T14:39:15.423Z,20.40
2017-05-03T14:41:42.459Z,20.33
2017-05-03T14:44:09.635Z,18.98
2017-05-03T14:46:36.605Z,19.45
2017-05-03T14:49:03.609Z,19.53
2017-05-03T14:51:30.628Z,20.42
2017-05-03T14:53:57.932Z,22.77
2017-05-03T14:56:26.132Z,22.00
2017-05-03T14:58:53.120Z,22.87
2017-05-03T15:01:20.136Z,21.15
2017-05-03T15:03:47.134Z,20.07
2017-05-03T15:06:14.093Z,19.50
2017-05-03T15:08:41.192Z,20.13
2017-05-03T15:11:08.223Z,19.62
2017-05-03T15:13:35.230Z,20.57
2017-05-03T15:16:02.314Z,18.52
2017-05-03T15:18:30.106Z,18.62
2017-05-03T15:20:57.106Z,19.92
2017-05-03T15:23:24.223Z,21.27
2017-05-03T15:25:52.929Z,20.93
2017-05-03T15:28:20.161Z,17.55
2017-05-03T15:30:48.177Z,17.82
2017-05-03T15:33:15.247Z,18.62
2017-05-03T15:35:42.306Z,18.33
2017-05-03T15:38:09.343Z,17.97
2017-05-03T15:40:37.246Z,17.15
2017-05-03T15:43:04.273Z,18.48
2017-05-03T15:45:31.248Z,18.35
2017-05-03T15:47:58.307Z,16.90
2017-05-03T15:50:25.340Z,17.18
2017-05-03T15:52:52.375Z,17.87
2017-05-03T15:55:19.363Z,17.90
2017-05-03T15:57:46.403Z,20.48
2017-05-03T16:00:27.280Z,17.20
2017-05-03T16:02:54.278Z,18.03
2017-05-03T16:05:21.332Z,16.43
2017-05-03T16:07:48.435Z,15.70
2017-05-03T16:10:16.569Z,15.25
2017-05-03T16:12:45.517Z,15.67
2017-05-03T16:15:13.753Z,14.72
2017-05-03T16:17:40.846Z,15.83
2017-05-03T16:25:17.818Z,17.72
2017-05-03T16:27:44.837Z,18.90
2017-05-03T16:30:14.699Z,17.77
2017-05-03T16:32:42.025Z,19.03
2017-05-03T16:35:14.792Z,20.10
2017-05-03T16:37:42.845Z,18.75
2017-05-03T16:40:10.062Z,18.18
2017-05-03T16:42:37.579Z,18.03
2017-05-03T16:45:04.714Z,17.33
2017-05-03T16:50:07.566Z,16.93
2017-05-03T16:52:34.831Z,17.13
2017-05-03T16:55:02.264Z,17.85
2017-05-03T16:57:31.416Z,18.43
2017-05-03T16:59:59.146Z,19.03
2017-05-03T17:02:26.376Z,19.05
2017-05-03T17:04:53.844Z,20.85
2017-05-03T17:07:21.164Z,19.68
2017-05-03T17:09:48.706Z,20.15
2017-05-03T17:12:22.053Z,19.58
2017-05-03T17:14:49.784Z,18.34
2017-05-03T17:17:16.793Z,18.53
2017-05-03T17:19:44.595Z,18.45
2017-05-03T17:22:11.866Z,18.20
2017-05-03T17:24:38.948Z,19.18
2017-05-03T17:27:06.106Z,18.86
2017-05-03T17:29:33.382Z,18.45
2017-05-03T17:32:00.656Z,19.00
2017-05-03T17:34:27.892Z,20.27
2017-05-03T17:36:55.092Z,20.55
2017-05-03T17:39:22.195Z,20.98
2017-05-03T17:41:49.269Z,20.47
2017-05-03T17:44:16.448Z,20.30
2017-05-03T17:46:43.631Z,23.03
2017-05-03T17:49:10.886Z,23.40
2017-05-03T17:51:39.336Z,24.68
2017-05-03T17:54:07.844Z,25.40
2017-05-03T17:56:35.925Z,25.33
2017-05-03T17:59:03.222Z,25.33
2017-05-03T18:01:30.443Z,25.80
2017-05-03T18:03:57.625Z,26.12
2017-05-03T18:06:29.537Z,25.60
2017-05-03T18:08:56.766Z,26.82
2017-05-03T18:11:24.465Z,25.97
2017-05-03T18:13:52.398Z,24.43
2017-05-03T18:16:19.522Z,23.40
2017-05-03T18:18:46.882Z,23.78
2017-05-03T18:21:13.920Z,23.65
2017-05-03T18:23:42.143Z,24.37
2017-05-03T18:26:09.337Z,23.40
2017-05-03T18:28:38.117Z,24.45
2017-05-03T18:31:07.989Z,26.55
2017-05-03T18:33:36.542Z,24.13
2017-05-03T18:36:07.068Z,25.13
2017-05-03T18:38:34.288Z,29.77
2017-05-03T18:41:06.775Z,28.80
2017-05-03T18:43:34.519Z,29.23
2017-05-03T18:46:02.454Z,31.20
2017-05-03T18:48:30.695Z,29.57
2017-05-03T18:50:59.098Z,33.83
2017-05-03T18:53:33.670Z,33.00
2017-05-03T18:56:05.230Z,33.55
2017-05-03T18:58:37.192Z,33.38
2017-05-03T19:01:05.645Z,34.37
2017-05-03T19:03:36.229Z,34.23
2017-05-03T19:06:16.820Z,33.22
2017-05-03T19:08:46.009Z,35.08
2017-05-03T19:11:14.818Z,35.83
2017-05-03T19:13:43.082Z,32.95
2017-05-03T19:16:11.216Z,30.33
2017-05-03T19:18:38.519Z,30.78
2017-05-03T19:21:06.700Z,30.37
2017-05-03T19:23:34.067Z,30.32
2017-05-03T19:26:02.676Z,30.65
2017-05-03T19:28:33.164Z,30.20
2017-05-03T19:31:09.168Z,30.47
2017-05-03T19:33:37.179Z,32.18
2017-05-03T19:36:07.815Z,30.30
2017-05-03T19:38:40.829Z,30.37
2017-05-03T19:41:14.181Z,31.95
2017-05-03T19:43:41.386Z,29.93
2017-05-03T19:46:10.556Z,30.02
2017-05-03T19:48:37.721Z,30.82
2017-05-03T19:51:08.667Z,30.32
2017-05-03T19:53:36.042Z,33.42
2017-05-03T19:56:03.635Z,31.32
2017-05-03T19:58:32.278Z,29.90
2017-05-03T20:01:02.451Z,32.20
2017-05-03T20:03:30.388Z,31.75
2017-05-03T20:05:57.604Z,31.80
2017-05-03T20:08:25.024Z,33.07
2017-05-03T20:10:52.111Z,33.68
2017-05-03T20:13:21.946Z,31.62
2017-05-03T20:15:49.147Z,34.10
2017-05-03T20:18:16.313Z,35.23
2017-05-03T20:20:45.666Z,35.02
2017-05-03T20:23:15.569Z,32.48
2017-05-03T20:25:43.015Z,34.17
2017-05-03T20:28:11.423Z,37.62
2017-05-03T20:30:38.424Z,34.93
2017-05-03T20:33:05.438Z,36.18
2017-05-03T20:35:32.409Z,36.02
2017-05-03T20:38:00.080Z,36.55
2017-05-03T20:40:28.263Z,37.03
2017-05-03T20:42:55.319Z,35.95
2017-05-03T20:45:24.709Z,36.25
2017-05-03T20:47:51.996Z,37.00
2017-05-03T20:50:20.387Z,38.55
2017-05-03T20:52:48.336Z,36.57
2017-05-03T20:55:15.580Z,36.35
2017-05-03T20:57:42.633Z,37.35
2017-05-03T21:00:10.883Z,37.03
2017-05-03T21:02:38.881Z,36.10
2017-05-03T21:05:06.211Z,36.12
2017-05-03T21:07:34.091Z,38.45
2017-05-03T21:10:01.573Z,36.73
2017-05-03T21:12:28.606Z,36.88
2017-05-03T21:14:55.816Z,37.57
2017-05-03T21:17:23.126Z,37.65
2017-05-03T21:19:50.247Z,36.17
2017-05-03T21:22:17.376Z,35.25
2017-05-03T21:24:45.300Z,38.52
2017-05-03T21:27:14.145Z,38.78
2017-05-03T21:29:41.536Z,37.53
2017-05-03T21:32:08.751Z,34.15
2017-05-03T21:34:35.765Z,38.78
2017-05-03T21:37:04.772Z,36.78
2017-05-03T21:39:31.790Z,36.25
2017-05-03T21:41:58.863Z,38.50
2017-05-03T21:44:26.030Z,38.50
2017-05-03T21:46:53.071Z,38.65
2017-05-03T21:49:20.251Z,38.27
2017-05-03T21:51:47.300Z,38.83
2017-05-03T21:54:14.382Z,39.45
2017-05-03T21:56:41.373Z,37.48
2017-05-03T21:59:08.794Z,38.18
2017-05-03T22:01:35.836Z,37.28
2017-05-03T22:04:02.803Z,44.35
2017-05-03T22:06:29.889Z,44.82
2017-05-03T22:08:57.096Z,45.62
2017-05-03T22:11:25.235Z,46.33
2017-05-03T22:13:53.157Z,40.07
2017-05-03T22:16:20.227Z,40.57
2017-05-03T22:18:47.391Z,41.53
2017-05-03T22:21:14.478Z,40.52
2017-05-03T22:23:42.454Z,38.13
2017-05-03T22:26:09.534Z,40.27
2017-05-03T22:28:36.891Z,38.35
2017-05-03T22:31:03.891Z,37.78
2017-05-03T22:33:31.088Z,38.35
2017-05-03T22:35:58.210Z,39.95
2017-05-03T22:38:25.386Z,39.60
2017-05-03T22:40:52.526Z,38.35
2017-05-03T22:43:19.748Z,38.58
2017-05-03T22:45:47.671Z,38.82
2017-05-03T22:48:14.672Z,37.63
2017-05-03T22:50:42.733Z,43.18
2017-05-03T22:53:09.798Z,39.07
2017-05-03T22:55:37.642Z,44.00
2017-05-03T22:58:04.960Z,39.45
2017-05-03T23:00:31.994Z,37.90
2017-05-03T23:02:59.220Z,39.67
2017-05-03T23:05:26.690Z,38.65
2017-05-03T23:07:53.682Z,36.80
2017-05-03T23:10:20.675Z,36.88
2017-05-03T23:12:47.935Z,37.45
2017-05-03T23:15:15.000Z,39.63
2017-05-03T23:17:42.150Z,37.72
2017-05-03T23:20:09.170Z,37.72
2017-05-03T23:22:36.308Z,37.43
2017-05-03T23:25:03.404Z,35.72
2017-05-03T23:27:30.438Z,36.33
2017-05-03T23:29:57.443Z,37.13
2017-05-03T23:32:24.527Z,37.18
2017-05-03T23:34:51.975Z,36.35
2017-05-03T23:37:18.983Z,35.00
2017-05-03T23:39:46.060Z,34.83
2017-05-03T23:42:13.145Z,35.87
2017-05-03T23:44:40.172Z,40.92
2017-05-03T23:47:07.227Z,40.43
2017-05-03T23:49:34.281Z,35.78
2017-05-03T23:52:01.407Z,33.77
2017-05-03T23:54:29.374Z,35.37
2017-05-03T23:56:56.683Z,34.57
2017-05-03T23:59:23.920Z,34.35
